Time,TemperatureF,DewpointF,PressureIn,WindDirection,WindDirectionDegrees,WindSpeedMPH,WindSpeedGustMPH,Humidity,HourlyPrecipIn,Conditions,Clouds,dailyrainin,SoftwareType,DateUTC
2013-01-12 00:05:00,69.4,66.0,30.18,SSW,205,0.0,4.0,90,0.00,,,0.00,weatherlink.com 1.10,2013-01-12 05:05:00,
2013-01-12 00:35:00,68.7,66.0,30.18,South,188,0.0,3.0,91,0.00,,,0.00,weatherlink.com 1.10,2013-01-12 05:35:00,
2013-01-12 00:50:00,68.5,66.0,30.17,SE,146,0.0,3.0,91,0.00,,,0.00,weatherlink.com 1.10,2013-01-12 05:50:00,
2013-01-12 01:05:00,68.4,66.0,30.17,South,176,0.0,2.0,91,0.00,,,0.00,weatherlink.com 1.10,2013-01-12 06:05:00,
2013-01-12 01:20:00,68.2,66.0,30.16,SSE,156,0.0,4.0,92,0.00,,,0.00,weatherlink.com 1.10,2013-01-12 06:20:00,
2013-01-12 02:05:00,67.8,66.0,30.16,WSW,253,0.0,2.0,92,0.00,,,0.00,weatherlink.com 1.10,2013-01-12 07:05:00,
2013-01-12 02:20:00,67.5,66.0,30.16,SE,131,1.0,3.0,93,0.00,,,0.00,weatherlink.com 1.10,2013-01-12 07:20:00,
2013-01-12 02:36:00,67.3,65.0,30.16,SE,143,0.0,2.0,93,0.00,,,0.00,weatherlink.com 1.10,2013-01-12 07:36:00,
2013-01-12 02:51:00,67.0,65.0,30.15,ESE,116,0.0,2.0,93,0.00,,,0.00,weatherlink.com 1.10,2013-01-12 07:51:00,
2013-01-12 03:06:00,66.8,65.0,30.15,SW,222,0.0,3.0,94,0.00,,,0.00,weatherlink.com 1.10,2013-01-12 08:06:00,
2013-01-12 03:21:00,66.6,65.0,30.15,SE,136,0.0,2.0,94,0.00,,,0.00,weatherlink.com 1.10,2013-01-12 08:21:00,
2013-01-12 03:36:00,66.2,65.0,30.15,East,82,0.0,1.0,94,0.00,,,0.00,weatherlink.com 1.10,2013-01-12 08:36:00,
2013-01-12 03:51:00,66.0,64.0,30.15,SSE,149,2.0,3.0,94,0.00,,,0.00,weatherlink.com 1.10,2013-01-12 08:51:00,
2013-01-12 04:36:00,66.0,65.0,30.13,SSW,205,0.0,2.0,95,0.00,,,0.00,weatherlink.com 1.10,2013-01-12 09:36:00,
2013-01-12 04:51:00,66.0,65.0,30.14,South,181,0.0,-999.0,95,-99.99,,,0.00,weatherlink.com 1.10,2013-01-12 09:51:00,
2013-01-12 05:06:00,66.0,65.0,30.14,SE,139,0.0,5.0,95,0.00,,,0.00,weatherlink.com 1.10,2013-01-12 10:06:00,
2013-01-12 05:21:00,66.0,65.0,30.13,ESE,119,0.0,3.0,95,0.00,,,0.00,weatherlink.com 1.10,2013-01-12 10:21:00,
2013-01-12 05:36:00,66.0,65.0,30.13,SSW,212,3.0,3.0,95,0.00,,,0.00,weatherlink.com 1.10,2013-01-12 10:36:00,
2013-01-12 05:51:00,66.1,65.0,30.13,SE,143,0.0,2.0,95,0.00,,,0.00,weatherlink.com 1.10,2013-01-12 10:51:00,
2013-01-12 06:21:00,66.3,65.0,30.14,WSW,238,0.0,2.0,95,0.00,,,0.00,weatherlink.com 1.10,2013-01-12 11:21:00,
2013-01-12 06:51:00,66.2,65.0,30.15,SSW,207,0.0,3.0,95,0.00,,,0.00,weatherlink.com 1.10,2013-01-12 11:51:00,
2013-01-12 07:06:00,66.0,65.0,30.15,SSE,153,0.0,1.0,95,0.00,,,0.00,weatherlink.com 1.10,2013-01-12 12:06:00,
2013-01-12 07:21:00,66.0,65.0,30.16,SSW,210,0.0,4.0,95,0.00,,,0.00,weatherlink.com 1.10,2013-01-12 12:21:00,
2013-01-12 07:51:00,66.4,65.0,30.16,SSW,194,0.0,4.0,95,0.00,,,0.00,weatherlink.com 1.10,2013-01-12 12:51:00,
2013-01-12 08:06:00,66.8,65.0,30.16,SE,126,0.0,3.0,94,0.00,,,0.00,weatherlink.com 1.10,2013-01-12 13:06:00,
2013-01-12 08:21:00,67.5,66.0,30.17,East,84,3.0,4.0,93,0.00,,,0.00,weatherlink.com 1.10,2013-01-12 13:21:00,
2013-01-12 08:36:00,68.4,66.0,30.17,SSE,166,0.0,5.0,91,0.00,,,0.00,weatherlink.com 1.10,2013-01-12 13:36:00,
2013-01-12 08:51:00,69.2,66.0,30.17,SE,131,1.0,5.0,89,0.00,,,0.00,weatherlink.com 1.10,2013-01-12 13:51:00,
2013-01-12 09:06:00,70.5,67.0,30.17,SSE,163,0.0,6.0,87,0.00,,,0.00,weatherlink.com 1.10,2013-01-12 14:06:00,
2013-01-12 09:21:00,71.7,67.0,30.17,ESE,122,1.0,7.0,85,0.00,,,0.00,weatherlink.com 1.10,2013-01-12 14:21:00,
2013-01-12 09:36:00,72.7,67.0,30.17,SSE,167,1.0,7.0,82,0.00,,,0.00,weatherlink.com 1.10,2013-01-12 14:36:00,
2013-01-12 09:51:00,73.7,68.0,30.18,SSE,162,1.0,7.0,81,0.00,,,0.00,weatherlink.com 1.10,2013-01-12 14:51:00,
2013-01-12 10:06:00,74.2,68.0,30.18,South,172,3.0,10.0,81,0.00,,,0.00,weatherlink.com 1.10,2013-01-12 15:06:00,
2013-01-12 10:21:00,74.8,68.0,30.17,South,177,1.0,11.0,80,0.00,,,0.00,weatherlink.com 1.10,2013-01-12 15:21:00,
2013-01-12 10:36:00,75.5,69.0,30.17,South,176,11.0,11.0,79,0.00,,,0.00,weatherlink.com 1.10,2013-01-12 15:36:00,
2013-01-12 10:51:00,76.0,69.0,30.16,SSE,158,1.0,6.0,79,0.00,,,0.00,weatherlink.com 1.10,2013-01-12 15:51:00,
2013-01-12 11:06:00,76.5,69.0,30.16,SSE,148,0.0,7.0,78,0.00,,,0.00,weatherlink.com 1.10,2013-01-12 16:06:00,
2013-01-12 11:21:00,77.3,70.0,30.15,SSE,162,0.0,11.0,77,0.00,,,0.00,weatherlink.com 1.10,2013-01-12 16:21:00,
2013-01-12 11:36:00,77.7,70.0,30.14,SSW,201,1.0,12.0,76,0.00,,,0.00,weatherlink.com 1.10,2013-01-12 16:36:00,
2013-01-12 12:22:00,78.3,70.0,30.12,SSW,204,7.0,13.0,75,0.00,,,0.00,weatherlink.com 1.10,2013-01-12 17:22:00,
2013-01-12 12:37:00,78.5,70.0,30.11,SW,229,1.0,9.0,74,0.00,,,0.00,weatherlink.com 1.10,2013-01-12 17:37:00,
2013-01-12 12:52:00,79.1,69.0,30.11,SW,215,3.0,12.0,72,0.00,,,0.00,weatherlink.com 1.10,2013-01-12 17:52:00,
2013-01-12 13:08:00,79.4,70.0,30.10,SSW,197,2.0,10.0,72,0.00,,,0.00,weatherlink.com 1.10,2013-01-12 18:08:00,
2013-01-12 13:22:00,79.6,69.0,30.10,SSW,200,5.0,13.0,71,0.00,,,0.00,weatherlink.com 1.10,2013-01-12 18:22:00,
2013-01-12 13:52:00,80.5,69.0,30.09,SSE,156,2.0,9.0,67,0.00,,,0.00,weatherlink.com 1.10,2013-01-12 18:52:00,
2013-01-12 14:07:00,80.6,69.0,30.08,SW,219,4.0,14.0,68,0.00,,,0.00,weatherlink.com 1.10,2013-01-12 19:07:00,
2013-01-12 14:22:00,80.8,68.0,30.08,SSW,204,5.0,15.0,66,0.00,,,0.00,weatherlink.com 1.10,2013-01-12 19:22:00,
2013-01-12 14:37:00,77.9,69.0,30.08,WSW,249,4.0,6.0,75,0.00,,,0.00,weatherlink.com 1.10,2013-01-12 19:37:00,
2013-01-12 14:52:00,76.1,69.0,30.08,SW,235,5.0,7.0,79,0.00,,,0.00,weatherlink.com 1.10,2013-01-12 19:52:00,
2013-01-12 15:07:00,75.9,69.0,30.09,SW,233,3.0,6.0,80,0.00,,,0.00,weatherlink.com 1.10,2013-01-12 20:07:00,
2013-01-12 15:22:00,75.9,69.0,30.09,WSW,242,5.0,5.0,79,0.00,,,0.00,weatherlink.com 1.10,2013-01-12 20:22:00,
2013-01-12 15:37:00,75.4,70.0,30.09,WNW,290,0.0,4.0,83,0.00,,,0.00,weatherlink.com 1.10,2013-01-12 20:37:00,
2013-01-12 16:07:00,73.6,69.0,30.10,WNW,284,3.0,4.0,86,0.00,,,0.00,weatherlink.com 1.10,2013-01-12 21:07:00,
2013-01-12 16:22:00,74.0,70.0,30.11,West,278,0.0,3.0,86,0.00,,,0.00,weatherlink.com 1.10,2013-01-12 21:22:00,
2013-01-12 16:37:00,75.0,70.0,30.10,West,266,0.0,1.0,83,0.00,,,0.00,weatherlink.com 1.10,2013-01-12 21:37:00,
2013-01-12 17:07:00,75.0,70.0,30.10,WNW,293,0.0,1.0,83,0.00,,,0.00,weatherlink.com 1.10,2013-01-12 22:07:00,
2013-01-12 17:22:00,74.3,69.0,30.11,NW,321,1.0,2.0,84,0.00,,,0.00,weatherlink.com 1.10,2013-01-12 22:22:00,
2013-01-12 17:52:00,73.1,69.0,30.11,WNW,300,0.0,0.0,86,0.00,,,0.00,weatherlink.com 1.10,2013-01-12 22:52:00,
2013-01-12 18:07:00,72.6,69.0,30.11,North,350,0.0,1.0,87,0.00,,,0.00,weatherlink.com 1.10,2013-01-12 23:07:00,
2013-01-12 18:22:00,72.3,69.0,30.11,NNE,16,0.0,2.0,88,0.00,,,0.00,weatherlink.com 1.10,2013-01-12 23:22:00,
2013-01-12 18:37:00,72.1,68.0,30.11,NNE,15,0.0,0.0,88,0.00,,,0.00,weatherlink.com 1.10,2013-01-12 23:37:00,
2013-01-12 18:52:00,71.9,68.0,30.11,NNE,16,0.0,0.0,87,0.00,,,0.00,weatherlink.com 1.10,2013-01-12 23:52:00,
2013-01-12 19:37:00,70.7,67.0,30.11,NNE,15,0.0,0.0,89,0.00,,,0.00,weatherlink.com 1.10,2013-01-13 00:37:00,
2013-01-12 20:07:00,70.4,67.0,30.10,NNE,16,0.0,0.0,90,0.00,,,0.00,weatherlink.com 1.10,2013-01-13 01:07:00,
2013-01-12 20:22:00,70.0,67.0,30.09,NNE,16,0.0,0.0,90,0.00,,,0.00,weatherlink.com 1.10,2013-01-13 01:22:00,
2013-01-12 20:37:00,69.5,67.0,30.09,NNE,15,0.0,0.0,91,0.00,,,0.00,weatherlink.com 1.10,2013-01-13 01:37:00,
2013-01-12 21:07:00,68.9,67.0,30.09,NNE,16,0.0,0.0,92,0.00,,,0.00,weatherlink.com 1.10,2013-01-13 02:07:00,
2013-01-12 21:22:00,68.9,67.0,30.09,NNE,15,0.0,0.0,93,0.00,,,0.00,weatherlink.com 1.10,2013-01-13 02:22:00,
2013-01-12 21:37:00,68.6,67.0,30.09,NNE,16,0.0,0.0,93,0.00,,,0.00,weatherlink.com 1.10,2013-01-13 02:37:00,
2013-01-12 21:53:00,68.5,67.0,30.08,NNE,16,0.0,0.0,93,0.00,,,0.00,weatherlink.com 1.10,2013-01-13 02:53:00,
2013-01-12 22:07:00,68.5,67.0,30.09,East,79,0.0,0.0,93,0.00,,,0.00,weatherlink.com 1.10,2013-01-13 03:07:00,
2013-01-12 22:23:00,68.2,66.0,30.09,East,79,0.0,0.0,93,0.00,,,0.00,weatherlink.com 1.10,2013-01-13 03:23:00,
2013-01-12 22:52:00,68.5,67.0,30.10,East,79,0.0,0.0,94,0.00,,,0.00,weatherlink.com 1.10,2013-01-13 03:52:00,
2013-01-12 23:07:00,68.9,67.0,30.09,SSE,160,0.0,1.0,94,0.00,,,0.00,weatherlink.com 1.10,2013-01-13 04:07:00,
2013-01-12 23:22:00,69.0,67.0,30.09,SSE,162,0.0,2.0,94,0.00,,,0.00,weatherlink.com 1.10,2013-01-13 04:22:00,
2013-01-12 23:37:00,69.0,67.0,30.09,South,177,0.0,1.0,93,0.00,,,0.00,weatherlink.com 1.10,2013-01-13 04:37:00,
2013-01-12 23:52:00,69.3,67.0,30.09,SSE,158,0.0,3.0,91,0.00,,,0.00,weatherlink.com 1.10,2013-01-13 04:52:00,